Time;durP1;ratioP1;P1;durP2;ratioP2;P2;SDS_P1;SDS_P2;PMS_P1;PMS_P2;Temp;Humidity;BMP_temperature;BMP_pressure;BME280_temperature;BME280_humidity;BME280_pressure;Samples;Min_cycle;Max_cycle;Signal;HPM_P1;HPM_P2
2023/10/19 00:01:23;;;;;;;9.23;4.68;;;;;;;;;;5030226;28;20067;-57
2023/10/19 00:03:49;;;;;;;8.05;3.33;;;;;;;;;;5030887;28;20029;-57
2023/10/19 00:06:14;;;;;;;10.10;3.78;;;;;;;;;;5031267;28;20032;-56
2023/10/19 00:08:43;;;;;;;8.30;4.10;;;;;;;;;;5031386;28;20100;-57
2023/10/19 00:11:21;;;;;;;9.70;4.53;;;;;;;;;;5030596;28;20032;-58
2023/10/19 00:13:50;;;;;;;7.93;3.75;;;;;;;;;;5020189;28;20104;-57
2023/10/19 00:16:22;;;;;;;10.98;7.38;;;;;;;;;;5030220;28;20072;-57
2023/10/19 00:18:48;;;;;;;9.05;4.03;;;;;;;;;;5030319;28;20024;-57
2023/10/19 00:21:27;;;;;;;15.95;14.00;;;;;;;;;;5030661;28;20033;-56
2023/10/19 00:24:04;;;;;;;7.68;3.63;;;;;;;;;;5027123;28;20025;-56
2023/10/19 00:26:30;;;;;;;10.40;3.65;;;;;;;;;;5031180;28;20052;-56
2023/10/19 00:28:56;;;;;;;8.57;3.63;;;;;;;;;;5037037;28;20469;-58
2023/10/19 00:31:22;;;;;;;12.15;9.93;;;;;;;;;;5030488;28;20036;-57
2023/10/19 00:33:47;;;;;;;9.38;3.63;;;;;;;;;;5030934;28;20029;-56
2023/10/19 00:36:15;;;;;;;7.10;3.10;;;;;;;;;;5032155;28;20018;-56
2023/10/19 00:38:50;;;;;;;7.82;3.35;;;;;;;;;;5028819;28;20021;-57
2023/10/19 00:41:21;;;;;;;7.28;3.22;;;;;;;;;;5030882;28;20467;-57
2023/10/19 00:43:48;;;;;;;10.32;3.50;;;;;;;;;;5036064;28;20029;-56
2023/10/19 00:48:49;;;;;;;8.65;3.60;;;;;;;;;;5024572;28;20026;-58
2023/10/19 00:53:58;;;;;;;8.57;3.67;;;;;;;;;;5030328;28;20021;-56
2023/10/19 00:56:26;;;;;;;9.82;3.50;;;;;;;;;;5030981;28;20026;-56
2023/10/19 00:59:00;;;;;;;11.45;8.00;;;;;;;;;;5026613;28;20124;-55
2023/10/19 01:01:28;;;;;;;9.80;4.32;;;;;;;;;;5026536;28;20022;-58
2023/10/19 01:03:56;;;;;;;9.45;3.67;;;;;;;;;;5026154;28;20115;-56
2023/10/19 01:06:22;;;;;;;9.02;3.60;;;;;;;;;;5030159;28;20393;-57
2023/10/19 01:08:47;;;;;;;10.20;3.80;;;;;;;;;;5030445;28;20099;-58
2023/10/19 01:11:15;;;;;;;7.90;3.90;;;;;;;;;;5030669;28;20026;-57
2023/10/19 01:13:51;;;;;;;9.88;3.92;;;;;;;;;;5029890;28;20039;-57
2023/10/19 01:16:23;;;;;;;10.07;4.13;;;;;;;;;;5031023;28;20099;-58
2023/10/19 01:18:53;;;;;;;8.95;4.80;;;;;;;;;;5034680;28;20021;-57
2023/10/19 01:21:21;;;;;;;9.82;4.95;;;;;;;;;;5033268;28;20108;-57
2023/10/19 01:23:46;;;;;;;22.17;20.20;;;;;;;;;;5032010;28;20016;-57
2023/10/19 01:26:18;;;;;;;10.27;4.17;;;;;;;;;;5034281;28;20088;-57
2023/10/19 01:28:53;;;;;;;8.27;6.25;;;;;;;;;;5034428;28;20018;-57
2023/10/19 01:33:55;;;;;;;8.27;3.90;;;;;;;;;;5034288;28;20116;-56
2023/10/19 01:38:53;;;;;;;9.93;4.13;;;;;;;;;;5038795;28;20021;-57
2023/10/19 01:41:19;;;;;;;10.48;4.22;;;;;;;;;;5032876;28;20022;-57
2023/10/19 01:43:44;;;;;;;9.63;4.85;;;;;;;;;;5034009;28;20087;-57
2023/10/19 01:46:12;;;;;;;7.93;4.32;;;;;;;;;;5032390;28;20025;-57
2023/10/19 01:48:40;;;;;;;9.32;5.00;;;;;;;;;;5032113;28;20038;-57
2023/10/19 01:51:07;;;;;;;8.93;4.15;;;;;;;;;;5033278;28;20619;-57
2023/10/19 01:53:33;;;;;;;10.85;4.47;;;;;;;;;;5034491;28;20067;-60
2023/10/19 01:55:58;;;;;;;11.57;4.00;;;;;;;;;;5032553;28;20112;-56
2023/10/19 01:58:27;;;;;;;9.67;4.40;;;;;;;;;;5030438;28;20507;-57
2023/10/19 02:00:55;;;;;;;11.38;4.72;;;;;;;;;;5031983;28;20464;-58
2023/10/19 02:03:23;;;;;;;10.25;5.63;;;;;;;;;;5033965;28;20084;-58
2023/10/19 02:05:50;;;;;;;10.82;6.68;;;;;;;;;;5032560;28;20184;-55
2023/10/19 02:08:17;;;;;;;13.73;5.97;;;;;;;;;;5029215;28;20108;-57
2023/10/19 02:10:46;;;;;;;14.38;10.98;;;;;;;;;;5034516;28;20021;-60
2023/10/19 02:13:15;;;;;;;9.90;6.07;;;;;;;;;;5034861;28;20468;-57
2023/10/19 02:15:41;;;;;;;11.27;4.70;;;;;;;;;;5036069;28;20010;-57
2023/10/19 02:18:08;;;;;;;13.20;7.57;;;;;;;;;;5035866;28;20095;-57
2023/10/19 02:20:34;;;;;;;12.13;7.80;;;;;;;;;;5036134;28;20502;-57
2023/10/19 02:23:03;;;;;;;11.00;4.88;;;;;;;;;;5032255;28;20021;-58
2023/10/19 02:25:30;;;;;;;13.20;5.45;;;;;;;;;;5033925;28;20549;-58
2023/10/19 02:27:55;;;;;;;18.33;8.35;;;;;;;;;;5031054;28;20452;-58
2023/10/19 02:30:20;;;;;;;10.93;5.57;;;;;;;;;;5031348;28;20064;-57
2023/10/19 02:32:47;;;;;;;9.10;4.70;;;;;;;;;;5033351;28;20477;-56
2023/10/19 02:35:13;;;;;;;9.23;4.72;;;;;;;;;;5037136;28;20025;-58
2023/10/19 02:37:38;;;;;;;17.15;10.52;;;;;;;;;;5033053;28;20026;-58
2023/10/19 02:40:12;;;;;;;10.70;6.37;;;;;;;;;;5032387;28;20017;-57
2023/10/19 02:42:38;;;;;;;11.18;8.88;;;;;;;;;;5029247;28;20417;-58
2023/10/19 02:45:05;;;;;;;11.10;7.07;;;;;;;;;;5031213;28;20020;-57
2023/10/19 02:47:30;;;;;;;10.90;7.47;;;;;;;;;;5032638;28;20022;-57
2023/10/19 02:49:55;;;;;;;10.43;5.67;;;;;;;;;;5033995;28;20476;-57
2023/10/19 02:52:22;;;;;;;14.70;13.02;;;;;;;;;;5032945;28;20500;-58
2023/10/19 02:54:47;;;;;;;14.55;12.48;;;;;;;;;;5032466;28;20033;-57
2023/10/19 02:57:13;;;;;;;11.53;8.97;;;;;;;;;;5033089;28;20041;-57
2023/10/19 02:59:39;;;;;;;11.30;6.20;;;;;;;;;;5029884;28;20440;-56
2023/10/19 03:02:16;;;;;;;13.77;6.50;;;;;;;;;;5049656;28;20021;-56
2023/10/19 03:04:42;;;;;;;11.32;7.07;;;;;;;;;;5034358;28;20025;-58
2023/10/19 03:07:07;;;;;;;10.13;7.20;;;;;;;;;;5015521;28;20025;-57
2023/10/19 03:09:36;;;;;;;15.77;9.23;;;;;;;;;;5029853;28;20026;-57
2023/10/19 03:12:05;;;;;;;10.43;5.78;;;;;;;;;;5031829;28;20528;-56
2023/10/19 03:14:30;;;;;;;12.45;6.63;;;;;;;;;;5031977;28;20037;-57
2023/10/19 03:16:57;;;;;;;16.17;14.57;;;;;;;;;;5031603;28;20048;-56
2023/10/19 03:19:24;;;;;;;12.00;8.30;;;;;;;;;;5033991;28;20055;-56
2023/10/19 03:21:50;;;;;;;19.05;17.25;;;;;;;;;;5031474;28;20025;-58
2023/10/19 03:27:00;;;;;;;12.68;10.40;;;;;;;;;;5031856;28;20507;-57
2023/10/19 03:29:31;;;;;;;12.30;6.83;;;;;;;;;;5031133;28;20025;-58
2023/10/19 03:31:57;;;;;;;15.73;13.60;;;;;;;;;;5030582;28;20018;-56
2023/10/19 03:34:23;;;;;;;11.82;6.93;;;;;;;;;;5023761;28;20028;-57
2023/10/19 03:36:50;;;;;;;;;;;;;;;;;;5032853;28;20048;-57
2023/10/19 03:39:15;;;;;;;12.35;6.45;;;;;;;;;;5029323;28;20368;-58
2023/10/19 03:41:44;;;;;;;13.47;9.40;;;;;;;;;;5029970;28;20041;-58
2023/10/19 03:44:25;;;;;;;14.65;13.25;;;;;;;;;;5031707;28;20049;-58
2023/10/19 03:46:54;;;;;;;31.05;28.58;;;;;;;;;;5033123;28;20088;-58
2023/10/19 03:49:20;;;;;;;12.73;6.78;;;;;;;;;;5020497;28;20429;-57
2023/10/19 03:51:58;;;;;;;13.82;10.32;;;;;;;;;;5029903;28;20029;-58
2023/10/19 03:54:27;;;;;;;13.35;9.35;;;;;;;;;;5029909;28;20038;-58
2023/10/19 03:56:53;;;;;;;13.77;7.75;;;;;;;;;;5031065;28;20020;-58
2023/10/19 03:59:20;;;;;;;17.00;7.32;;;;;;;;;;5030424;28;20026;-59
2023/10/19 04:01:45;;;;;;;22.63;20.52;;;;;;;;;;5023061;28;20018;-59
2023/10/19 04:04:10;;;;;;;14.17;7.27;;;;;;;;;;5029291;28;20358;-58
2023/10/19 04:06:37;;;;;;;13.80;9.68;;;;;;;;;;5031520;28;20074;-58
2023/10/19 04:09:04;;;;;;;20.20;17.02;;;;;;;;;;5026862;28;20064;-58
2023/10/19 04:11:32;;;;;;;28.75;26.02;;;;;;;;;;5033770;28;20093;-58
2023/10/19 04:14:03;;;;;;;14.10;8.80;;;;;;;;;;5023054;28;20029;-57
2023/10/19 04:16:28;;;;;;;22.40;20.05;;;;;;;;;;5027325;28;20378;-58
2023/10/19 04:18:54;;;;;;;38.30;35.25;;;;;;;;;;5029927;28;20498;-58
2023/10/19 04:21:19;;;;;;;17.40;13.27;;;;;;;;;;5029769;28;20207;-58
2023/10/19 04:23:46;;;;;;;25.58;23.08;;;;;;;;;;5031017;28;20020;-56
2023/10/19 04:26:11;;;;;;;32.15;28.90;;;;;;;;;;5030982;28;20040;-59
2023/10/19 04:28:41;;;;;;;19.83;10.90;;;;;;;;;;5024840;28;20018;-60
2023/10/19 04:31:07;;;;;;;18.35;10.30;;;;;;;;;;5028173;28;20456;-56
2023/10/19 04:33:33;;;;;;;19.15;12.40;;;;;;;;;;5023247;28;20018;-58
2023/10/19 04:36:00;;;;;;;;;;;;;;;;;;5023994;28;20463;-59
2023/10/19 04:38:25;;;;;;;20.38;14.32;;;;;;;;;;5023157;28;19924;-58
2023/10/19 04:40:51;;;;;;;44.95;40.88;;;;;;;;;;5027005;28;20169;-59
2023/10/19 04:43:21;;;;;;;20.80;17.27;;;;;;;;;;5025674;28;20071;-59
2023/10/19 04:45:46;;;;;;;30.73;27.40;;;;;;;;;;5025091;28;20026;-59
2023/10/19 04:48:11;;;;;;;36.53;32.47;;;;;;;;;;5028160;28;20060;-58
2023/10/19 04:50:36;;;;;;;24.17;20.75;;;;;;;;;;5026574;28;20401;-58
2023/10/19 04:53:02;;;;;;;32.40;21.10;;;;;;;;;;5028752;28;20037;-60
2023/10/19 04:55:27;;;;;;;30.50;20.85;;;;;;;;;;5026500;28;20117;-58
2023/10/19 04:57:52;;;;;;;32.28;18.77;;;;;;;;;;5028159;28;20029;-59
2023/10/19 05:00:20;;;;;;;30.53;23.43;;;;;;;;;;5021960;28;20024;-61
2023/10/19 05:02:45;;;;;;;31.95;26.02;;;;;;;;;;5026822;28;20428;-59
2023/10/19 05:05:10;;;;;;;29.23;17.77;;;;;;;;;;5027039;28;20100;-57
2023/10/19 05:07:36;;;;;;;22.50;13.47;;;;;;;;;;5027736;28;20025;-60
2023/10/19 05:10:02;;;;;;;34.83;18.45;;;;;;;;;;5026583;28;20029;-59
2023/10/19 05:12:28;;;;;;;32.63;18.05;;;;;;;;;;5027746;28;20477;-59
2023/10/19 05:14:53;;;;;;;28.67;19.73;;;;;;;;;;5027356;28;20021;-59
2023/10/19 05:17:21;;;;;;;34.28;25.08;;;;;;;;;;5028036;28;20386;-59
2023/10/19 05:19:46;;;;;;;41.70;34.85;;;;;;;;;;5027005;28;20029;-57
2023/10/19 05:22:11;;;;;;;33.50;23.15;;;;;;;;;;5033741;28;20100;-59
2023/10/19 05:24:36;;;;;;;34.90;22.50;;;;;;;;;;5037895;28;20025;-59
2023/10/19 05:27:02;;;;;;;31.90;18.37;;;;;;;;;;5031744;28;20366;-59
2023/10/19 05:29:27;;;;;;;33.13;17.27;;;;;;;;;;5030933;28;20588;-58
2023/10/19 05:31:57;;;;;;;40.87;28.30;;;;;;;;;;5030037;28;20029;-59
2023/10/19 05:34:29;;;;;;;32.90;23.73;;;;;;;;;;5029852;28;20026;-57
2023/10/19 05:36:58;;;;;;;29.08;20.33;;;;;;;;;;5025157;28;20017;-58
2023/10/19 05:39:27;;;;;;;30.02;17.83;;;;;;;;;;5029521;28;20056;-57
2023/10/19 05:41:53;;;;;;;33.38;20.38;;;;;;;;;;5027197;28;20512;-59
2023/10/19 05:44:18;;;;;;;47.13;39.05;;;;;;;;;;5017201;28;20025;-58
2023/10/19 05:46:44;;;;;;;27.87;15.87;;;;;;;;;;5029424;28;20014;-58
2023/10/19 05:49:09;;;;;;;35.60;19.23;;;;;;;;;;5030274;28;20030;-58
2023/10/19 05:51:34;;;;;;;34.05;17.73;;;;;;;;;;5031023;28;20151;-59
2023/10/19 05:54:03;;;;;;;29.17;17.97;;;;;;;;;;5028901;28;20025;-56
2023/10/19 05:56:30;;;;;;;36.97;24.33;;;;;;;;;;5029731;28;20018;-60
2023/10/19 05:58:55;;;;;;;;;;;;;;;;;;5028949;28;20112;-57
2023/10/19 06:01:22;;;;;;;36.53;18.70;;;;;;;;;;5012356;28;19995;-58
2023/10/19 06:03:47;;;;;;;41.80;22.13;;;;;;;;;;5031580;28;20446;-57
2023/10/19 06:06:12;;;;;;;43.28;30.27;;;;;;;;;;5034310;28;20027;-57
2023/10/19 06:08:37;;;;;;;41.97;26.50;;;;;;;;;;5033393;28;20105;-56
2023/10/19 06:11:03;;;;;;;33.00;21.60;;;;;;;;;;5033110;28;20494;-59
2023/10/19 06:13:29;;;;;;;35.80;20.20;;;;;;;;;;5033018;28;20409;-57
2023/10/19 06:15:54;;;;;;;41.08;26.80;;;;;;;;;;5033223;28;20024;-58
2023/10/19 06:18:19;;;;;;;36.30;19.87;;;;;;;;;;5033660;28;20029;-58
2023/10/19 06:20:44;;;;;;;31.97;19.23;;;;;;;;;;5038036;28;20042;-59
2023/10/19 06:23:11;;;;;;;38.23;21.30;;;;;;;;;;5033048;28;20024;-58
2023/10/19 06:25:36;;;;;;;;;;;;;;;;;;5030002;28;20540;-56
2023/10/19 06:28:02;;;;;;;39.23;26.97;;;;;;;;;;5028575;28;19913;-57
2023/10/19 06:30:27;;;;;;;36.38;20.63;;;;;;;;;;5029196;28;20489;-59
2023/10/19 06:32:59;;;;;;;38.03;22.38;;;;;;;;;;5029884;28;20374;-58
2023/10/19 06:35:24;;;;;;;45.47;34.20;;;;;;;;;;5028403;28;20036;-60
2023/10/19 06:37:49;;;;;;;41.07;34.50;;;;;;;;;;5015038;28;20298;-57
2023/10/19 06:40:16;;;;;;;45.37;23.60;;;;;;;;;;5023056;28;20033;-57
2023/10/19 06:42:41;;;;;;;40.05;21.75;;;;;;;;;;5029635;28;20041;-58
2023/10/19 06:45:07;;;;;;;38.95;23.08;;;;;;;;;;5028015;28;20025;-57
2023/10/19 06:47:37;;;;;;;45.00;23.27;;;;;;;;;;5029814;28;20027;-58
2023/10/19 06:50:04;;;;;;;45.00;25.23;;;;;;;;;;5029164;28;20031;-59
2023/10/19 06:52:29;;;;;;;40.70;23.08;;;;;;;;;;5030236;28;20080;-60
2023/10/19 06:54:54;;;;;;;44.67;29.33;;;;;;;;;;5032059;28;20033;-59
2023/10/19 06:57:20;;;;;;;39.93;28.03;;;;;;;;;;5031072;28;20038;-59
2023/10/19 06:59:45;;;;;;;47.20;37.50;;;;;;;;;;5031477;28;20105;-59
2023/10/19 07:02:12;;;;;;;48.97;34.15;;;;;;;;;;5032954;28;20251;-58
2023/10/19 07:04:38;;;;;;;60.95;52.55;;;;;;;;;;5032976;28;20025;-60
2023/10/19 07:07:03;;;;;;;37.35;21.45;;;;;;;;;;5033541;28;20553;-60
2023/10/19 07:09:29;;;;;;;45.05;28.50;;;;;;;;;;5032683;28;20041;-59
2023/10/19 07:11:54;;;;;;;44.60;27.67;;;;;;;;;;5035739;28;20063;-59
2023/10/19 07:14:22;;;;;;;52.53;42.70;;;;;;;;;;5031645;28;20775;-58
2023/10/19 07:16:47;;;;;;;54.45;44.92;;;;;;;;;;5033070;28;20025;-59
2023/10/19 07:19:13;;;;;;;56.10;39.03;;;;;;;;;;5032204;28;20037;-58
2023/10/19 07:21:42;;;;;;;50.20;26.73;;;;;;;;;;5033537;28;20028;-58
2023/10/19 07:24:10;;;;;;;85.90;78.38;;;;;;;;;;5034972;28;20473;-58
2023/10/19 07:26:43;;;;;;;51.20;26.02;;;;;;;;;;5032099;28;20029;-58
2023/10/19 07:29:10;;;;;;;48.70;25.05;;;;;;;;;;5032215;28;20025;-60
2023/10/19 07:31:35;;;;;;;51.13;28.52;;;;;;;;;;5031845;28;20029;-58
2023/10/19 07:34:00;;;;;;;45.17;27.73;;;;;;;;;;5032110;28;20021;-58
2023/10/19 07:36:26;;;;;;;48.22;23.73;;;;;;;;;;5033686;28;20025;-60
2023/10/19 07:38:51;;;;;;;51.90;37.72;;;;;;;;;;5033148;28;20025;-58
2023/10/19 07:41:16;;;;;;;52.30;37.00;;;;;;;;;;5031207;28;20112;-58
2023/10/19 07:43:43;;;;;;;50.30;33.23;;;;;;;;;;5033006;28;20105;-59
2023/10/19 07:46:08;;;;;;;45.58;31.33;;;;;;;;;;5034167;28;20025;-58
2023/10/19 07:48:33;;;;;;;45.60;30.10;;;;;;;;;;5032910;28;20022;-59
2023/10/19 07:50:59;;;;;;;42.38;27.70;;;;;;;;;;5031591;28;20049;-59
2023/10/19 07:53:24;;;;;;;41.90;24.00;;;;;;;;;;5035617;28;20026;-60
2023/10/19 07:55:49;;;;;;;43.22;24.30;;;;;;;;;;5031464;28;20436;-59
2023/10/19 07:58:15;;;;;;;47.70;26.50;;;;;;;;;;5031163;28;20049;-58
2023/10/19 08:00:42;;;;;;;47.28;39.65;;;;;;;;;;5031422;28;20021;-59
2023/10/19 08:03:08;;;;;;;42.22;30.13;;;;;;;;;;5020071;28;20021;-61
2023/10/19 08:05:33;;;;;;;37.35;23.75;;;;;;;;;;5012540;28;20478;-61
2023/10/19 08:08:00;;;;;;;44.57;39.17;;;;;;;;;;5011665;28;20057;-60
2023/10/19 08:10:26;;;;;;;40.67;28.33;;;;;;;;;;5023159;28;20075;-61
2023/10/19 08:12:52;;;;;;;59.88;53.80;;;;;;;;;;5030984;28;20026;-60
2023/10/19 08:15:17;;;;;;;41.35;31.83;;;;;;;;;;5031301;28;20027;-60
2023/10/19 08:17:43;;;;;;;49.22;33.05;;;;;;;;;;5031684;28;20393;-60
2023/10/19 08:20:15;;;;;;;47.05;42.05;;;;;;;;;;5029759;28;20028;-60
2023/10/19 08:22:41;;;;;;;36.22;22.38;;;;;;;;;;5031808;28;20030;-60
2023/10/19 08:25:11;;;;;;;40.83;27.17;;;;;;;;;;5031252;28;20157;-59
2023/10/19 08:27:37;;;;;;;45.70;26.70;;;;;;;;;;5033633;28;20506;-61
2023/10/19 08:30:03;;;;;;;50.15;43.95;;;;;;;;;;5031248;28;20044;-60
2023/10/19 08:32:28;;;;;;;40.60;26.20;;;;;;;;;;5031346;28;20022;-59
2023/10/19 08:34:54;;;;;;;40.17;33.63;;;;;;;;;;5029382;28;20029;-58
2023/10/19 08:37:19;;;;;;;39.58;28.30;;;;;;;;;;5030640;28;20056;-58
2023/10/19 08:39:44;;;;;;;40.53;28.97;;;;;;;;;;5030526;28;20020;-58
2023/10/19 08:42:10;;;;;;;43.90;31.50;;;;;;;;;;5037129;28;20029;-58
2023/10/19 08:44:35;;;;;;;48.80;27.05;;;;;;;;;;5031031;28;20104;-59
2023/10/19 08:47:01;;;;;;;35.53;20.30;;;;;;;;;;5029743;28;20025;-59
2023/10/19 08:49:26;;;;;;;38.30;27.02;;;;;;;;;;5037182;28;20025;-59
2023/10/19 08:51:53;;;;;;;33.88;20.80;;;;;;;;;;5026355;28;20021;-58
2023/10/19 08:54:19;;;;;;;32.72;19.45;;;;;;;;;;5030759;28;20045;-59
2023/10/19 08:56:44;;;;;;;38.80;30.50;;;;;;;;;;5028703;28;20095;-59
2023/10/19 08:59:10;;;;;;;33.92;18.92;;;;;;;;;;5031916;28;20100;-60
2023/10/19 09:01:36;;;;;;;34.30;24.17;;;;;;;;;;5028148;28;20560;-60
2023/10/19 09:04:01;;;;;;;47.10;42.40;;;;;;;;;;5030775;28;20053;-59
2023/10/19 09:06:30;;;;;;;40.53;27.40;;;;;;;;;;5030911;28;20017;-59
2023/10/19 09:08:57;;;;;;;62.13;56.72;;;;;;;;;;5030364;28;20100;-60
2023/10/19 09:11:24;;;;;;;33.40;18.98;;;;;;;;;;5030305;28;20092;-59
2023/10/19 09:13:50;;;;;;;35.05;23.45;;;;;;;;;;5030691;28;20481;-60
2023/10/19 09:16:16;;;;;;;31.95;18.95;;;;;;;;;;5030655;28;20060;-59
2023/10/19 09:18:42;;;;;;;37.47;26.98;;;;;;;;;;5029565;28;20060;-58
2023/10/19 09:21:07;;;;;;;29.40;20.60;;;;;;;;;;5029050;28;20040;-59
2023/10/19 09:23:33;;;;;;;43.55;39.35;;;;;;;;;;5032001;28;20017;-59
2023/10/19 09:26:06;;;;;;;37.63;33.65;;;;;;;;;;5029571;28;20392;-59
2023/10/19 09:28:33;;;;;;;35.35;30.88;;;;;;;;;;5025676;28;20040;-58
2023/10/19 09:31:00;;;;;;;32.63;24.13;;;;;;;;;;5030206;28;20163;-58
2023/10/19 09:33:26;;;;;;;31.30;19.38;;;;;;;;;;5030384;28;20050;-59
2023/10/19 09:35:56;;;;;;;57.25;52.53;;;;;;;;;;5028685;28;20017;-59
2023/10/19 09:38:21;;;;;;;24.90;21.42;;;;;;;;;;5032995;28;20029;-61
2023/10/19 09:40:50;;;;;;;46.15;41.53;;;;;;;;;;5033583;28;20454;-58
2023/10/19 09:43:21;;;;;;;24.60;17.20;;;;;;;;;;5034007;28;20681;-60
2023/10/19 09:45:51;;;;;;;26.40;20.77;;;;;;;;;;5034122;28;20028;-58
2023/10/19 09:48:16;;;;;;;29.85;24.88;;;;;;;;;;5033975;28;20032;-58
2023/10/19 09:50:42;;;;;;;31.10;27.90;;;;;;;;;;5033545;28;20018;-59
2023/10/19 09:53:08;;;;;;;29.65;22.30;;;;;;;;;;5038096;28;20060;-59
2023/10/19 09:55:34;;;;;;;36.80;33.13;;;;;;;;;;5032819;28;20021;-58
2023/10/19 09:58:02;;;;;;;41.35;37.28;;;;;;;;;;5033986;28;20515;-58
2023/10/19 10:00:31;;;;;;;22.55;14.30;;;;;;;;;;5032477;28;20582;-59
2023/10/19 10:02:57;;;;;;;29.58;24.13;;;;;;;;;;5034237;28;20416;-60
2023/10/19 10:05:44;;;;;;;33.25;29.70;;;;;;;;;;5036110;28;20264;-60
2023/10/19 10:08:18;;;;;;;34.10;30.58;;;;;;;;;;5033860;28;20037;-59
2023/10/19 10:10:44;;;;;;;32.92;29.50;;;;;;;;;;5033506;28;20025;-60
2023/10/19 10:13:24;;;;;;;25.80;21.15;;;;;;;;;;5031358;28;20048;-59
2023/10/19 10:15:52;;;;;;;28.90;25.70;;;;;;;;;;5033173;28;20541;-59
2023/10/19 10:18:17;;;;;;;25.35;17.13;;;;;;;;;;5033521;28;20462;-60
2023/10/19 10:20:42;;;;;;;28.63;23.00;;;;;;;;;;5033059;28;20040;-60
2023/10/19 10:23:21;;;;;;;21.33;13.90;;;;;;;;;;5033830;28;20433;-59
2023/10/19 10:25:49;;;;;;;;;;;;;;;;;;5034016;28;20025;-58
2023/10/19 10:28:15;;;;;;;26.50;19.58;;;;;;;;;;5032301;28;19917;-59
2023/10/19 10:30:59;;;;;;;29.15;25.48;;;;;;;;;;5032753;28;20017;-58
2023/10/19 10:33:40;;;;;;;24.63;15.82;;;;;;;;;;5034209;28;20373;-59
2023/10/19 10:36:06;;;;;;;25.15;16.35;;;;;;;;;;5033026;28;20020;-59
2023/10/19 10:38:33;;;;;;;39.35;35.33;;;;;;;;;;5033505;28;20021;-58
2023/10/19 10:40:58;;;;;;;35.28;31.52;;;;;;;;;;5032788;28;20025;-60
2023/10/19 10:43:23;;;;;;;30.37;19.57;;;;;;;;;;5036628;28;20014;-59
2023/10/19 10:45:48;;;;;;;65.28;59.95;;;;;;;;;;5032776;28;20032;-59
2023/10/19 10:48:14;;;;;;;25.87;19.23;;;;;;;;;;5032075;28;20121;-59
2023/10/19 10:50:41;;;;;;;34.10;30.45;;;;;;;;;;5031638;28;20477;-59
2023/10/19 10:53:06;;;;;;;35.13;30.40;;;;;;;;;;5033053;28;20473;-59
2023/10/19 10:55:32;;;;;;;28.40;18.47;;;;;;;;;;5029454;28;20025;-58
2023/10/19 10:57:57;;;;;;;32.55;27.20;;;;;;;;;;5031334;28;20456;-59
2023/10/19 11:00:25;;;;;;;31.77;22.55;;;;;;;;;;5032446;28;20025;-60
2023/10/19 11:03:01;;;;;;;36.85;31.80;;;;;;;;;;5033159;28;20017;-60
2023/10/19 11:05:26;;;;;;;30.73;19.40;;;;;;;;;;5033053;28;20381;-59
2023/10/19 11:08:13;;;;;;;36.27;32.50;;;;;;;;;;5032886;28;20029;-58
2023/10/19 11:10:39;;;;;;;32.05;24.75;;;;;;;;;;5032486;28;20467;-59
2023/10/19 11:13:05;;;;;;;36.45;32.72;;;;;;;;;;5026005;28;21138;-60
2023/10/19 11:15:31;;;;;;;34.60;23.98;;;;;;;;;;5042227;28;20022;-58
2023/10/19 11:17:57;;;;;;;44.97;40.28;;;;;;;;;;5030257;28;20013;-58
2023/10/19 11:20:23;;;;;;;28.33;20.98;;;;;;;;;;5038620;28;20025;-60
2023/10/19 11:22:49;;;;;;;35.17;29.08;;;;;;;;;;5032638;28;20049;-59
2023/10/19 11:25:21;;;;;;;39.35;35.40;;;;;;;;;;5031881;28;20026;-59
2023/10/19 11:27:47;;;;;;;47.22;42.70;;;;;;;;;;5033691;28;20523;-59
2023/10/19 11:30:12;;;;;;;76.90;70.85;;;;;;;;;;5034270;28;20017;-59
2023/10/19 11:32:39;;;;;;;32.70;23.83;;;;;;;;;;5032312;28;20021;-59
2023/10/19 11:35:06;;;;;;;45.97;41.55;;;;;;;;;;5032817;28;20101;-61
2023/10/19 11:37:45;;;;;;;69.38;63.80;;;;;;;;;;5032357;28;20491;-59
2023/10/19 11:40:10;;;;;;;35.22;26.13;;;;;;;;;;5032023;28;20075;-59
2023/10/19 11:42:36;;;;;;;37.30;27.90;;;;;;;;;;5037074;28;20017;-59
2023/10/19 11:45:02;;;;;;;69.65;64.03;;;;;;;;;;5031937;28;20621;-60
2023/10/19 11:47:27;;;;;;;31.43;20.67;;;;;;;;;;5031752;28;20025;-60
2023/10/19 11:49:53;;;;;;;35.47;29.57;;;;;;;;;;5029363;28;20484;-58
2023/10/19 11:52:20;;;;;;;32.88;20.55;;;;;;;;;;5011881;28;20536;-58
2023/10/19 11:54:45;;;;;;;55.85;50.88;;;;;;;;;;5012114;28;20022;-60
2023/10/19 11:57:12;;;;;;;36.47;29.00;;;;;;;;;;5025945;28;20028;-61
2023/10/19 11:59:37;;;;;;;32.15;21.30;;;;;;;;;;5033286;28;20033;-58
2023/10/19 12:02:04;;;;;;;55.83;50.80;;;;;;;;;;5027569;28;20063;-59
2023/10/19 12:04:29;;;;;;;49.20;44.30;;;;;;;;;;5027216;28;20021;-59
2023/10/19 12:06:55;;;;;;;42.90;38.60;;;;;;;;;;5028117;28;20388;-58
2023/10/19 12:09:24;;;;;;;33.05;22.95;;;;;;;;;;5034176;28;20044;-59
2023/10/19 12:11:49;;;;;;;28.05;18.40;;;;;;;;;;5029008;28;20010;-59
2023/10/19 12:14:15;;;;;;;35.47;26.00;;;;;;;;;;5031353;28;20025;-60
2023/10/19 12:16:40;;;;;;;30.40;18.58;;;;;;;;;;5029719;28;20025;-59
2023/10/19 12:19:05;;;;;;;32.55;24.40;;;;;;;;;;5039656;28;20057;-59
2023/10/19 12:21:33;;;;;;;41.30;32.63;;;;;;;;;;5031387;28;20055;-59
2023/10/19 12:24:01;;;;;;;69.15;63.50;;;;;;;;;;5031283;28;20021;-60
2023/10/19 12:26:26;;;;;;;70.85;64.80;;;;;;;;;;5031803;28;20017;-58
2023/10/19 12:28:51;;;;;;;34.55;24.27;;;;;;;;;;5031482;28;20048;-59
2023/10/19 12:31:18;;;;;;;81.68;75.20;;;;;;;;;;5032436;28;20533;-58
2023/10/19 12:33:44;;;;;;;41.05;36.88;;;;;;;;;;5028128;28;20493;-58
2023/10/19 12:38:47;;;;;;;31.42;21.00;;;;;;;;;;5030978;28;20022;-60
2023/10/19 12:41:13;;;;;;;34.90;25.80;;;;;;;;;;5030156;28;20071;-59
2023/10/19 12:43:39;;;;;;;32.85;24.60;;;;;;;;;;5030712;28;20013;-59
2023/10/19 12:46:08;;;;;;;40.58;36.17;;;;;;;;;;5030075;28;20010;-59
2023/10/19 12:48:34;;;;;;;43.45;39.30;;;;;;;;;;5030913;28;20022;-58
2023/10/19 12:51:01;;;;;;;74.38;68.45;;;;;;;;;;5030104;28;20009;-58
2023/10/19 12:53:26;;;;;;;36.35;30.50;;;;;;;;;;5031759;28;20014;-58
2023/10/19 12:55:52;;;;;;;43.77;39.40;;;;;;;;;;5035409;28;20097;-58
2023/10/19 12:58:19;;;;;;;33.63;25.73;;;;;;;;;;5030311;28;20033;-60
2023/10/19 13:00:45;;;;;;;34.05;25.70;;;;;;;;;;5030000;28;20055;-59
2023/10/19 13:03:13;;;;;;;31.23;20.10;;;;;;;;;;5029865;28;20025;-59
2023/10/19 13:05:40;;;;;;;36.42;29.58;;;;;;;;;;5030446;28;20017;-59
2023/10/19 13:08:06;;;;;;;33.72;24.38;;;;;;;;;;5030180;28;20409;-59
2023/10/19 13:10:32;;;;;;;58.22;52.95;;;;;;;;;;5029819;28;20022;-58
2023/10/19 13:13:03;;;;;;;42.00;36.38;;;;;;;;;;5032600;28;20433;-59
2023/10/19 13:15:30;;;;;;;73.95;67.65;;;;;;;;;;5034172;28;20056;-61
2023/10/19 13:17:56;;;;;;;41.17;36.90;;;;;;;;;;5034133;28;20096;-58
2023/10/19 13:20:21;;;;;;;47.30;42.53;;;;;;;;;;5032957;28;21850;-59
2023/10/19 13:22:47;;;;;;;34.30;25.63;;;;;;;;;;5033622;28;20452;-58
2023/10/19 13:25:18;;;;;;;45.70;40.95;;;;;;;;;;5042879;28;20108;-59
2023/10/19 13:27:44;;;;;;;43.33;36.35;;;;;;;;;;5037013;28;20147;-58
2023/10/19 13:30:10;;;;;;;41.47;36.60;;;;;;;;;;5033824;28;20100;-58
2023/10/19 13:32:36;;;;;;;38.25;29.10;;;;;;;;;;5034060;28;20029;-59
2023/10/19 13:35:01;;;;;;;43.05;38.35;;;;;;;;;;5034574;28;20018;-60
2023/10/19 13:37:28;;;;;;;43.53;37.13;;;;;;;;;;5032201;28;20018;-58
2023/10/19 13:39:54;;;;;;;79.95;73.40;;;;;;;;;;5030690;28;20497;-57
2023/10/19 13:42:19;;;;;;;64.90;59.25;;;;;;;;;;5031469;28;20029;-60
2023/10/19 13:44:44;;;;;;;44.87;39.23;;;;;;;;;;5029916;28;20029;-59
2023/10/19 13:47:11;;;;;;;61.28;55.88;;;;;;;;;;5029038;28;20040;-59
2023/10/19 13:49:36;;;;;;;31.17;23.05;;;;;;;;;;5028925;28;20040;-59
2023/10/19 13:52:04;;;;;;;37.87;31.53;;;;;;;;;;5030699;28;20013;-58
2023/10/19 13:54:29;;;;;;;34.38;26.95;;;;;;;;;;5010915;28;20025;-59
2023/10/19 13:56:54;;;;;;;32.72;23.73;;;;;;;;;;5027319;28;20033;-59
2023/10/19 13:59:20;;;;;;;41.35;36.78;;;;;;;;;;5029000;28;20661;-59
2023/10/19 14:01:45;;;;;;;34.50;27.90;;;;;;;;;;5022815;28;20045;-58
2023/10/19 14:04:11;;;;;;;34.20;25.40;;;;;;;;;;5026734;28;20393;-59
2023/10/19 14:06:37;;;;;;;40.33;31.08;;;;;;;;;;5029167;28;20029;-56
2023/10/19 14:09:04;;;;;;;43.42;38.85;;;;;;;;;;5028430;28;20393;-59
2023/10/19 14:11:30;;;;;;;57.80;52.25;;;;;;;;;;5028744;28;20112;-58
2023/10/19 14:13:55;;;;;;;48.15;43.22;;;;;;;;;;5031361;28;20094;-59
2023/10/19 14:16:21;;;;;;;37.08;32.90;;;;;;;;;;5030956;28;20071;-60
2023/10/19 14:18:47;;;;;;;39.38;32.17;;;;;;;;;;5033229;28;20519;-59
2023/10/19 14:21:16;;;;;;;38.25;26.70;;;;;;;;;;5032667;28;20485;-58
2023/10/19 14:23:42;;;;;;;33.28;22.73;;;;;;;;;;5033176;28;20021;-58
2023/10/19 14:26:09;;;;;;;48.05;43.08;;;;;;;;;;5033211;28;20021;-59
2023/10/19 14:28:35;;;;;;;38.10;27.45;;;;;;;;;;5032884;28;20029;-58
2023/10/19 14:31:00;;;;;;;35.15;23.83;;;;;;;;;;5032530;28;20022;-59
2023/10/19 14:33:25;;;;;;;47.33;42.30;;;;;;;;;;5033538;28;20071;-59
2023/10/19 14:35:51;;;;;;;64.93;59.30;;;;;;;;;;5032965;28;20032;-59
2023/10/19 14:38:16;;;;;;;47.97;43.03;;;;;;;;;;5029694;28;20033;-59